createdAt,value
2019-03-16T00:02:13.066Z,83.06
2019-03-16T00:04:41.149Z,82.80
2019-03-16T00:07:10.366Z,82.60
2019-03-16T00:09:40.117Z,82.98
2019-03-16T00:12:08.427Z,83.05
2019-03-16T00:14:36.740Z,82.62
2019-03-16T00:17:05.316Z,83.17
2019-03-16T00:19:33.358Z,83.45
2019-03-16T00:22:01.949Z,83.61
2019-03-16T00:24:35.447Z,82.95
2019-03-16T00:27:03.628Z,82.42
2019-03-16T00:29:31.979Z,82.08
2019-03-16T00:32:12.912Z,82.44
2019-03-16T00:34:30.563Z,82.57
2019-03-16T00:36:58.862Z,83.12
2019-03-16T00:39:27.102Z,82.93
2019-03-16T00:41:55.717Z,82.27
2019-03-16T00:44:25.623Z,82.79
2019-03-16T00:46:53.616Z,82.48
2019-03-16T00:49:21.838Z,82.51
2019-03-16T00:51:50.001Z,81.93
2019-03-16T00:54:18.081Z,81.64
2019-03-16T00:56:46.125Z,81.60
2019-03-16T00:59:14.177Z,81.81
2019-03-16T01:01:42.269Z,82.26
2019-03-16T01:04:10.747Z,81.90
2019-03-16T01:06:39.021Z,82.38
2019-03-16T01:09:08.423Z,81.63
2019-03-16T01:11:36.439Z,81.83
2019-03-16T01:14:04.566Z,81.30
2019-03-16T01:16:32.679Z,80.91
2019-03-16T01:19:00.707Z,81.60
2019-03-16T01:21:28.722Z,81.56
2019-03-16T01:23:57.211Z,81.52
2019-03-16T01:26:26.259Z,81.42
2019-03-16T01:28:54.836Z,81.09
2019-03-16T01:31:22.786Z,81.29
2019-03-16T01:33:50.823Z,80.94
2019-03-16T01:36:18.925Z,80.14
2019-03-16T01:38:48.789Z,80.36
2019-03-16T01:41:16.876Z,80.71
2019-03-16T01:43:46.027Z,80.20
2019-03-16T01:46:15.961Z,80.80
2019-03-16T01:48:44.973Z,80.82
2019-03-16T01:51:13.067Z,81.09
2019-03-16T01:53:41.323Z,80.76
2019-03-16T01:56:09.453Z,80.67
2019-03-16T01:58:37.440Z,80.35
2019-03-16T02:01:05.485Z,80.01
2019-03-16T02:03:33.550Z,80.01
2019-03-16T02:06:01.839Z,80.92
2019-03-16T02:08:31.738Z,79.48
2019-03-16T02:11:00.026Z,79.89
2019-03-16T02:13:28.061Z,79.46
2019-03-16T02:16:10.022Z,79.09
2019-03-16T02:18:26.063Z,79.87
2019-03-16T02:20:54.558Z,79.40
2019-03-16T02:23:22.761Z,79.41
2019-03-16T02:25:51.482Z,78.99
2019-03-16T02:28:19.817Z,79.10
2019-03-16T02:30:48.216Z,78.65
2019-03-16T02:33:16.382Z,78.60
2019-03-16T02:35:44.451Z,78.64
2019-03-16T02:38:12.705Z,77.89
2019-03-16T02:40:40.820Z,78.20
2019-03-16T02:43:08.915Z,78.56
2019-03-16T02:45:37.064Z,77.84
2019-03-16T02:48:05.422Z,77.94
2019-03-16T02:50:33.698Z,77.31
2019-03-16T02:53:02.008Z,76.88
2019-03-16T02:55:30.014Z,76.16
2019-03-16T02:57:58.092Z,76.81
2019-03-16T03:00:26.140Z,75.93
2019-03-16T03:02:54.414Z,76.06
2019-03-16T03:05:23.989Z,75.78
2019-03-16T03:07:52.037Z,75.84
2019-03-16T03:10:20.095Z,75.53
2019-03-16T03:12:48.110Z,75.93
2019-03-16T03:15:16.240Z,75.60
2019-03-16T03:17:44.202Z,75.61
2019-03-16T03:20:12.395Z,75.78
2019-03-16T03:22:40.367Z,75.46
2019-03-16T03:25:08.698Z,75.57
2019-03-16T03:27:36.914Z,75.67
2019-03-16T03:30:06.275Z,75.71
2019-03-16T03:32:34.273Z,75.48
2019-03-16T03:35:02.466Z,75.76
2019-03-16T03:37:30.590Z,75.44
2019-03-16T03:39:58.727Z,75.86
2019-03-16T03:42:26.731Z,75.68
2019-03-16T03:44:54.739Z,75.72
2019-03-16T03:47:22.881Z,75.47
2019-03-16T03:49:51.970Z,75.95
2019-03-16T03:52:20.285Z,76.40
2019-03-16T03:54:48.336Z,75.66
2019-03-16T03:57:16.490Z,76.11
2019-03-16T03:59:44.683Z,76.79
2019-03-16T04:02:12.657Z,77.21
2019-03-16T04:04:41.146Z,77.84
2019-03-16T04:07:09.417Z,77.31
2019-03-16T04:09:38.580Z,77.54
2019-03-16T04:12:06.619Z,77.69
2019-03-16T04:14:34.933Z,77.83
2019-03-16T04:17:02.967Z,78.35
2019-03-16T04:19:31.374Z,78.04
2019-03-16T04:21:59.484Z,78.43
2019-03-16T04:24:27.760Z,78.30
2019-03-16T04:26:55.674Z,77.86
2019-03-16T04:29:24.279Z,77.86
2019-03-16T04:31:52.383Z,78.22
2019-03-16T04:34:29.186Z,78.77
2019-03-16T04:36:51.010Z,79.00
2019-03-16T04:39:19.088Z,79.45
2019-03-16T04:41:47.079Z,80.01
2019-03-16T04:44:15.154Z,80.21
2019-03-16T04:46:43.309Z,79.59
2019-03-16T04:49:11.361Z,79.11
2019-03-16T04:51:39.512Z,79.51
2019-03-16T04:54:07.611Z,78.81
2019-03-16T04:56:36.864Z,78.91
2019-03-16T04:59:04.941Z,78.89
2019-03-16T05:01:34.268Z,79.35
2019-03-16T05:04:02.553Z,78.87
2019-03-16T05:06:31.275Z,78.70
2019-03-16T05:08:59.523Z,78.59
2019-03-16T05:11:27.730Z,78.26
2019-03-16T05:13:55.741Z,78.28
2019-03-16T05:16:23.830Z,77.98
2019-03-16T05:18:52.146Z,77.70
2019-03-16T05:21:20.270Z,77.70
2019-03-16T05:23:48.629Z,77.84
2019-03-16T05:26:18.145Z,78.52
2019-03-16T05:28:46.613Z,77.82
2019-03-16T05:31:14.933Z,77.64
2019-03-16T05:33:42.930Z,77.54
2019-03-16T05:36:10.952Z,77.71
2019-03-16T05:38:40.789Z,77.75
2019-03-16T05:41:08.892Z,77.14
2019-03-16T05:43:38.053Z,77.60
2019-03-16T05:46:06.403Z,77.50
2019-03-16T05:48:34.501Z,78.34
2019-03-16T05:51:02.779Z,77.98
2019-03-16T05:53:30.962Z,77.78
2019-03-16T05:55:59.082Z,77.74
2019-03-16T05:58:27.383Z,78.27
2019-03-16T06:00:55.492Z,78.59
2019-03-16T06:03:23.700Z,77.83
2019-03-16T06:05:54.859Z,78.04
2019-03-16T06:08:28.199Z,78.65
2019-03-16T06:10:58.296Z,78.72
2019-03-16T06:13:26.423Z,78.56
2019-03-16T06:15:54.508Z,79.06
2019-03-16T06:18:23.726Z,78.58
2019-03-16T06:20:51.785Z,78.77
2019-03-16T06:23:20.419Z,79.01
2019-03-16T06:25:48.643Z,78.94
2019-03-16T06:28:16.915Z,79.17
2019-03-16T06:30:45.297Z,79.43
2019-03-16T06:33:13.325Z,79.42
2019-03-16T06:35:41.352Z,79.27
2019-03-16T06:38:09.463Z,78.74
2019-03-16T06:40:39.355Z,78.62
2019-03-16T06:43:08.644Z,78.32
2019-03-16T06:45:37.100Z,78.04
2019-03-16T06:48:05.351Z,78.03
2019-03-16T06:50:33.402Z,77.28
2019-03-16T06:53:01.628Z,76.76
2019-03-16T06:55:30.747Z,76.26
2019-03-16T06:57:59.181Z,76.39
2019-03-16T07:00:27.278Z,76.51
2019-03-16T07:02:55.609Z,75.83
2019-03-16T07:05:37.263Z,75.54
2019-03-16T07:07:54.251Z,74.97
2019-03-16T07:10:22.651Z,75.16
2019-03-16T07:12:51.738Z,75.04
2019-03-16T07:15:20.957Z,75.24
2019-03-16T07:17:49.189Z,75.49
2019-03-16T07:20:17.461Z,75.23
2019-03-16T07:22:45.870Z,74.80
2019-03-16T07:25:13.913Z,74.33
2019-03-16T07:27:42.023Z,74.25
2019-03-16T07:30:10.755Z,74.48
2019-03-16T07:32:40.272Z,73.44
2019-03-16T07:35:08.936Z,73.23
2019-03-16T07:37:37.456Z,73.42
2019-03-16T07:40:07.121Z,73.17
2019-03-16T07:42:35.593Z,73.52
2019-03-16T07:45:08.603Z,73.42
2019-03-16T07:47:34.962Z,73.70
2019-03-16T07:50:03.743Z,73.56
2019-03-16T07:52:33.330Z,73.74
2019-03-16T07:55:01.633Z,73.01
2019-03-16T07:57:39.508Z,72.73
2019-03-16T07:59:59.855Z,72.08
2019-03-16T08:02:27.833Z,71.75
2019-03-16T08:04:58.056Z,71.18
2019-03-16T08:07:26.481Z,71.56
2019-03-16T08:09:55.058Z,70.70
2019-03-16T08:12:23.361Z,71.41
2019-03-16T08:14:53.310Z,71.78
2019-03-16T08:17:21.374Z,71.37
2019-03-16T08:19:50.822Z,71.27
2019-03-16T08:22:20.703Z,70.85
2019-03-16T08:24:51.601Z,71.90
2019-03-16T08:27:19.645Z,72.48
2019-03-16T08:29:47.743Z,72.01
2019-03-16T08:32:17.611Z,72.22
2019-03-16T08:34:46.005Z,71.96
2019-03-16T08:37:14.017Z,71.16
2019-03-16T08:39:42.424Z,70.65
2019-03-16T08:42:12.329Z,70.58
2019-03-16T08:44:41.274Z,70.80
2019-03-16T08:47:10.117Z,71.06
2019-03-16T08:49:38.328Z,70.75
2019-03-16T08:52:07.727Z,70.62
2019-03-16T08:54:36.388Z,70.51
2019-03-16T08:57:05.229Z,69.85
2019-03-16T08:59:33.548Z,68.93
2019-03-16T09:02:01.675Z,66.86
2019-03-16T09:04:29.794Z,66.68
2019-03-16T09:06:58.076Z,65.70
2019-03-16T09:09:26.227Z,64.92
2019-03-16T09:11:54.774Z,65.08
2019-03-16T09:14:22.946Z,64.82
2019-03-16T09:16:51.075Z,64.66
2019-03-16T09:19:19.752Z,65.24
2019-03-16T09:21:48.554Z,65.21
2019-03-16T09:24:16.846Z,65.12
2019-03-16T09:26:45.350Z,64.61
2019-03-16T09:29:15.231Z,65.13
2019-03-16T09:31:43.842Z,64.61
2019-03-16T09:34:13.259Z,64.05
2019-03-16T09:36:41.432Z,65.54
2019-03-16T09:39:09.707Z,65.48
2019-03-16T09:41:39.773Z,64.94
2019-03-16T09:44:09.274Z,65.73
2019-03-16T09:46:37.729Z,65.88
2019-03-16T09:49:07.646Z,65.87
2019-03-16T09:51:37.309Z,65.97
2019-03-16T09:54:05.978Z,66.98
2019-03-16T09:56:36.826Z,67.08
2019-03-16T09:59:07.703Z,67.29
2019-03-16T10:01:40.475Z,69.24
2019-03-16T10:04:08.875Z,70.33
2019-03-16T10:06:38.705Z,70.13
2019-03-16T10:09:07.645Z,70.44
2019-03-16T10:11:35.829Z,69.85
2019-03-16T10:14:04.157Z,68.98
2019-03-16T10:16:33.456Z,69.42
2019-03-16T10:19:02.677Z,69.66
2019-03-16T10:21:34.886Z,69.64
2019-03-16T10:24:05.113Z,70.49
2019-03-16T10:26:37.520Z,70.35
2019-03-16T10:29:10.149Z,69.78
2019-03-16T10:31:40.005Z,71.10
2019-03-16T10:34:09.537Z,71.67
2019-03-16T10:36:39.018Z,70.50
2019-03-16T10:39:09.166Z,70.58
2019-03-16T10:41:37.408Z,70.23
2019-03-16T10:44:05.783Z,69.81
2019-03-16T10:46:39.087Z,70.17
2019-03-16T10:49:12.681Z,70.77
2019-03-16T10:51:45.979Z,69.07
2019-03-16T10:54:14.666Z,66.85
2019-03-16T10:56:42.883Z,65.97
2019-03-16T10:59:11.863Z,65.02
2019-03-16T11:01:40.459Z,64.87
2019-03-16T11:04:09.623Z,64.81
2019-03-16T11:06:39.763Z,64.10
2019-03-16T11:09:08.998Z,62.34
2019-03-16T11:11:37.583Z,61.60
2019-03-16T11:14:05.647Z,61.88
2019-03-16T11:16:33.925Z,63.45
2019-03-16T11:19:02.373Z,63.01
2019-03-16T11:21:31.011Z,62.03
2019-03-16T11:23:59.559Z,63.53
2019-03-16T11:26:28.046Z,62.09
2019-03-16T11:29:04.526Z,61.67
2019-03-16T11:31:27.370Z,61.15
2019-03-16T11:33:55.579Z,61.26
2019-03-16T11:36:25.548Z,58.53
2019-03-16T11:38:55.376Z,58.24
2019-03-16T11:41:23.899Z,57.53
2019-03-16T11:43:52.268Z,57.41
2019-03-16T11:46:20.489Z,56.42
2019-03-16T11:48:49.174Z,55.33
2019-03-16T11:51:18.403Z,55.91
2019-03-16T11:53:47.063Z,54.67
2019-03-16T11:56:18.221Z,53.78
2019-03-16T11:58:46.359Z,54.17
2019-03-16T12:01:15.374Z,53.68
2019-03-16T12:03:43.421Z,53.79
2019-03-16T12:06:11.537Z,53.09
2019-03-16T12:08:39.879Z,52.20
2019-03-16T12:11:08.110Z,51.91
2019-03-16T12:13:36.084Z,50.25
2019-03-16T12:16:04.355Z,50.91
2019-03-16T12:18:32.388Z,52.07
2019-03-16T12:21:00.389Z,52.28
2019-03-16T12:23:28.836Z,52.14
2019-03-16T12:25:57.233Z,53.43
2019-03-16T12:28:25.355Z,51.79
2019-03-16T12:30:53.428Z,52.04
2019-03-16T12:33:23.269Z,50.38
2019-03-16T12:35:51.430Z,50.02
2019-03-16T12:38:19.537Z,49.01
2019-03-16T12:40:47.586Z,49.61
2019-03-16T12:43:16.365Z,49.82
2019-03-16T12:45:44.429Z,49.75
2019-03-16T12:48:12.560Z,49.12
2019-03-16T12:50:40.794Z,48.18
2019-03-16T12:53:08.837Z,48.02
2019-03-16T12:55:38.207Z,47.63
2019-03-16T12:58:06.270Z,49.36
2019-03-16T13:00:34.313Z,50.17
2019-03-16T13:03:03.821Z,49.04
2019-03-16T13:05:33.285Z,49.31
2019-03-16T13:08:01.255Z,49.88
2019-03-16T13:10:30.298Z,50.05
2019-03-16T13:12:58.392Z,49.51
2019-03-16T13:15:26.575Z,48.98
2019-03-16T13:17:54.698Z,48.69
2019-03-16T13:20:22.867Z,48.17
2019-03-16T13:22:51.017Z,48.50
2019-03-16T13:25:20.974Z,48.65
2019-03-16T13:27:49.020Z,48.00
2019-03-16T13:30:17.855Z,46.53
2019-03-16T13:32:46.183Z,47.48
2019-03-16T13:35:14.975Z,44.57
2019-03-16T13:37:43.066Z,44.18
2019-03-16T13:40:12.361Z,45.29
2019-03-16T13:42:41.744Z,45.49
2019-03-16T13:45:12.689Z,46.00
2019-03-16T13:47:41.169Z,46.74
2019-03-16T13:50:13.071Z,47.59
2019-03-16T13:52:42.025Z,44.84
2019-03-16T13:55:10.247Z,43.85
2019-03-16T13:57:39.179Z,45.02
2019-03-16T14:00:12.223Z,43.06
2019-03-16T14:02:40.105Z,43.81
2019-03-16T14:05:10.707Z,38.76
2019-03-16T14:07:39.374Z,40.26
2019-03-16T14:10:12.400Z,41.54
2019-03-16T14:12:40.859Z,42.52
2019-03-16T14:15:10.331Z,43.28
2019-03-16T14:17:38.848Z,39.34
2019-03-16T14:20:10.137Z,35.80
2019-03-16T14:22:38.208Z,35.62
2019-03-16T14:25:07.592Z,34.40
2019-03-16T14:27:35.883Z,34.22
2019-03-16T14:30:05.354Z,33.15
2019-03-16T14:32:33.803Z,33.87
2019-03-16T14:35:01.958Z,35.19
2019-03-16T14:37:31.116Z,35.91
2019-03-16T14:39:59.385Z,37.17
2019-03-16T14:42:27.695Z,38.03
2019-03-16T14:44:56.855Z,41.34
2019-03-16T14:47:25.377Z,40.90
2019-03-16T14:49:53.819Z,40.40
2019-03-16T14:52:22.206Z,41.91
2019-03-16T14:54:51.529Z,42.03
2019-03-16T14:57:21.606Z,42.74
2019-03-16T14:59:50.766Z,42.03
2019-03-16T15:02:19.237Z,41.92
2019-03-16T15:04:50.541Z,42.97
2019-03-16T15:07:19.784Z,44.25
2019-03-16T15:09:47.920Z,45.05
2019-03-16T15:12:16.215Z,41.49
2019-03-16T15:14:44.583Z,38.87
2019-03-16T15:17:12.803Z,41.34
2019-03-16T15:19:41.103Z,40.57
2019-03-16T15:22:11.993Z,41.51
2019-03-16T15:24:39.511Z,40.43
2019-03-16T15:27:07.858Z,40.76
2019-03-16T15:29:35.991Z,40.50
2019-03-16T15:32:04.415Z,39.60
2019-03-16T15:34:32.854Z,41.31
2019-03-16T15:37:01.258Z,40.59
2019-03-16T15:39:29.326Z,41.44
2019-03-16T15:41:59.747Z,43.67
2019-03-16T15:44:28.148Z,44.50
2019-03-16T15:46:56.202Z,45.13
2019-03-16T15:49:25.441Z,44.19
2019-03-16T15:51:56.552Z,42.19
2019-03-16T15:54:24.667Z,42.34
2019-03-16T15:56:53.114Z,43.15
2019-03-16T15:59:21.462Z,42.62
2019-03-16T16:01:50.237Z,41.79
2019-03-16T16:04:18.336Z,43.00
2019-03-16T16:06:46.476Z,43.54
2019-03-16T16:09:15.095Z,45.00
2019-03-16T16:11:43.184Z,46.99
2019-03-16T16:14:11.911Z,47.46
2019-03-16T16:16:40.004Z,45.99
2019-03-16T16:19:09.362Z,45.32
2019-03-16T16:21:37.835Z,45.37
2019-03-16T16:24:05.919Z,47.30
2019-03-16T16:26:33.944Z,48.28
2019-03-16T16:29:03.150Z,49.05
2019-03-16T16:31:31.589Z,49.66
2019-03-16T16:34:02.785Z,49.52
2019-03-16T16:36:30.090Z,51.03
2019-03-16T16:38:58.160Z,49.95
2019-03-16T16:41:26.257Z,50.27
2019-03-16T16:43:56.191Z,50.58
2019-03-16T16:46:25.448Z,50.88
2019-03-16T16:48:53.799Z,51.26
2019-03-16T16:51:22.025Z,52.11
2019-03-16T16:53:50.825Z,52.03
2019-03-16T16:56:18.954Z,52.05
2019-03-16T16:58:48.869Z,52.99
2019-03-16T17:01:28.897Z,53.42
2019-03-16T17:03:52.068Z,54.01
2019-03-16T17:06:20.203Z,54.18
2019-03-16T17:08:48.371Z,54.74
2019-03-16T17:11:16.708Z,55.35
2019-03-16T17:13:45.236Z,55.87
2019-03-16T17:16:14.107Z,56.49
2019-03-16T17:18:42.293Z,58.77
2019-03-16T17:21:10.668Z,58.08
2019-03-16T17:23:39.169Z,60.07
2019-03-16T17:26:10.170Z,60.14
2019-03-16T17:28:41.252Z,59.26
2019-03-16T17:31:12.211Z,60.27
2019-03-16T17:33:41.694Z,59.84
2019-03-16T17:36:13.692Z,60.69
2019-03-16T17:38:42.547Z,60.38
2019-03-16T17:41:13.676Z,61.22
2019-03-16T17:43:44.220Z,61.98
2019-03-16T17:46:12.621Z,61.13
2019-03-16T17:48:40.666Z,59.18
2019-03-16T17:51:11.488Z,61.07
2019-03-16T17:53:39.558Z,62.08
2019-03-16T17:56:07.675Z,62.28
2019-03-16T17:58:35.863Z,60.49
2019-03-16T18:01:04.034Z,60.09
2019-03-16T18:03:32.079Z,59.17
2019-03-16T18:06:00.468Z,60.33
2019-03-16T18:08:29.593Z,60.25
2019-03-16T18:10:58.468Z,59.46
2019-03-16T18:13:29.454Z,59.51
2019-03-16T18:16:00.084Z,59.81
2019-03-16T18:18:28.386Z,60.53
2019-03-16T18:20:56.908Z,61.95
2019-03-16T18:23:25.493Z,60.85
2019-03-16T18:25:53.842Z,61.56
2019-03-16T18:28:22.146Z,62.41
2019-03-16T18:30:50.725Z,63.16
2019-03-16T18:33:18.846Z,63.62
2019-03-16T18:35:47.187Z,63.07
2019-03-16T18:38:16.348Z,64.01
2019-03-16T18:40:44.502Z,63.11
2019-03-16T18:43:14.772Z,63.76
2019-03-16T18:45:44.684Z,64.43
2019-03-16T18:48:13.172Z,66.53
2019-03-16T18:50:43.849Z,64.97
2019-03-16T18:53:12.293Z,65.43
2019-03-16T18:55:40.406Z,64.04
2019-03-16T18:58:09.623Z,63.45
2019-03-16T19:00:38.730Z,61.13
2019-03-16T19:03:07.211Z,61.87
2019-03-16T19:05:35.382Z,63.19
2019-03-16T19:08:03.422Z,62.28
2019-03-16T19:10:31.530Z,62.36
2019-03-16T19:13:06.583Z,62.16
2019-03-16T19:15:37.207Z,63.00
2019-03-16T19:18:05.522Z,62.74
2019-03-16T19:20:33.831Z,61.28
2019-03-16T19:23:02.364Z,60.81
2019-03-16T19:25:30.850Z,60.03
2019-03-16T19:28:00.257Z,59.96
2019-03-16T19:30:28.907Z,60.54
2019-03-16T19:33:00.023Z,60.23
2019-03-16T19:35:28.227Z,60.59
2019-03-16T19:37:56.325Z,61.18
2019-03-16T19:40:24.785Z,63.26
2019-03-16T19:42:54.176Z,62.24
2019-03-16T19:45:25.220Z,62.75
2019-03-16T19:47:55.342Z,62.88
2019-03-16T19:50:23.837Z,62.05
2019-03-16T19:52:52.561Z,61.61
2019-03-16T19:55:21.295Z,60.78
2019-03-16T19:57:49.588Z,61.52
2019-03-16T20:00:22.018Z,62.22
2019-03-16T20:02:51.715Z,61.96
2019-03-16T20:05:20.710Z,61.84
2019-03-16T20:07:51.509Z,62.70
2019-03-16T20:10:24.634Z,62.16
2019-03-16T20:12:58.397Z,62.28
2019-03-16T20:15:26.692Z,63.48
2019-03-16T20:17:59.937Z,64.14
2019-03-16T20:20:32.876Z,63.21
2019-03-16T20:23:01.276Z,62.82
2019-03-16T20:25:32.204Z,62.17
2019-03-16T20:28:00.578Z,61.65
2019-03-16T20:30:32.642Z,61.90
2019-03-16T20:33:04.771Z,62.12
2019-03-16T20:35:31.258Z,62.61
2019-03-16T20:38:04.911Z,61.56
2019-03-16T20:40:37.151Z,60.84
2019-03-16T20:43:10.478Z,60.75
2019-03-16T20:45:40.717Z,61.56
2019-03-16T20:48:11.769Z,62.21
2019-03-16T20:50:39.841Z,60.32
2019-03-16T20:53:08.753Z,60.31
2019-03-16T20:55:40.649Z,60.38
2019-03-16T20:58:10.691Z,60.01
2019-03-16T21:00:40.701Z,59.54
2019-03-16T21:03:15.871Z,58.92
2019-03-16T21:05:44.527Z,59.10
2019-03-16T21:08:13.422Z,58.46
2019-03-16T21:10:41.811Z,58.92
2019-03-16T21:13:11.489Z,58.92
2019-03-16T21:15:49.667Z,58.87
2019-03-16T21:18:20.006Z,57.89
2019-03-16T21:20:49.148Z,58.07
2019-03-16T21:23:17.338Z,58.00
2019-03-16T21:25:45.781Z,57.80
2019-03-16T21:28:16.103Z,57.59
2019-03-16T21:30:45.574Z,56.62
2019-03-16T21:33:14.252Z,56.45
2019-03-16T21:35:43.257Z,56.84
2019-03-16T21:38:12.028Z,56.13
2019-03-16T21:40:50.034Z,55.29
2019-03-16T21:43:21.686Z,55.76
2019-03-16T21:45:49.907Z,55.62
2019-03-16T21:48:19.176Z,55.30
2019-03-16T21:50:47.663Z,55.07
2019-03-16T21:53:16.305Z,55.12
2019-03-16T21:55:45.055Z,56.32
2019-03-16T21:58:13.379Z,56.83
2019-03-16T22:00:42.696Z,56.51
2019-03-16T22:03:12.081Z,56.54
2019-03-16T22:05:40.591Z,56.95
2019-03-16T22:08:15.150Z,56.15
2019-03-16T22:10:47.206Z,56.17
2019-03-16T22:13:15.449Z,56.29
2019-03-16T22:15:43.518Z,56.17
2019-03-16T22:18:12.074Z,55.84
2019-03-16T22:20:41.239Z,55.77
2019-03-16T22:23:10.336Z,55.51
2019-03-16T22:25:38.842Z,55.91
2019-03-16T22:28:07.153Z,56.04
2019-03-16T22:30:35.336Z,56.31
2019-03-16T22:33:03.774Z,56.91
2019-03-16T22:35:31.797Z,56.30
2019-03-16T22:37:59.906Z,56.26
2019-03-16T22:40:31.339Z,56.66
2019-03-16T22:42:59.418Z,56.16
2019-03-16T22:45:27.546Z,56.14
2019-03-16T22:47:55.623Z,55.49
2019-03-16T22:50:23.598Z,55.35
2019-03-16T22:52:51.638Z,54.85
2019-03-16T22:55:21.220Z,54.46
2019-03-16T22:57:49.324Z,53.63
2019-03-16T23:00:20.534Z,52.85
2019-03-16T23:02:50.852Z,52.93
2019-03-16T23:05:20.302Z,52.05
2019-03-16T23:07:48.486Z,51.70
2019-03-16T23:10:17.738Z,51.29
2019-03-16T23:12:45.901Z,50.62
2019-03-16T23:15:15.522Z,50.83
2019-03-16T23:17:43.660Z,50.33
2019-03-16T23:20:11.948Z,50.37
2019-03-16T23:22:40.380Z,50.56
2019-03-16T23:25:08.441Z,49.76
2019-03-16T23:27:36.567Z,50.01
2019-03-16T23:30:06.029Z,48.65
2019-03-16T23:32:35.274Z,47.70
2019-03-16T23:35:03.427Z,48.65
2019-03-16T23:37:32.886Z,48.31
2019-03-16T23:40:00.966Z,47.97
2019-03-16T23:42:29.323Z,47.24
2019-03-16T23:44:57.330Z,46.86
2019-03-16T23:47:25.651Z,46.39
2019-03-16T23:49:53.764Z,46.05
2019-03-16T23:52:22.547Z,46.33
2019-03-16T23:54:50.569Z,46.97
2019-03-16T23:57:19.678Z,46.63
2019-03-16T23:59:47.730Z,45.91
